首页
METAR-TAF:

METAR-TAF

机场 :

圣莫里茨, 瑞士

纬度: 46-32-03N, 经度: 9-53-03E, 海拔: 1707米

当前天气观测

该预报发布于14分钟前的05:20 UTC
风速1节,风向多变
温度 -3°C
湿度 80%
气压 1027 hPa
能见度10公里或以上
多云层高于6500英尺

METAR: LSZS 230520Z AUTO VRB01KT 9999 BKN065 M03/M06 Q1027

时间: 06:34 (05:34 UTC)

预报

该预报发布于15小时和9分钟前的14:25 UTC
预报有效从22日的 15点(UTC)到 22日的 24点(UTC)
风速3节,风向多变
能见度10公里或以上
1500米以下无云,无积雨云

TAF: LSZS 221425Z 2215/2224 VRB03KT CAVOK TX08/2215Z

超过4000个机场的气象观测和天气预报(METAR&TAF报告)。

可查询的气象台以黄色和红色小点在地图上表示。

将鼠标移到小点上方,可查看气象台名称。

然后点击查看天气观测和预报。

如需切换地图:点击带黑十字的绿色按钮放大地图;点击带横线的绿色按钮缩小地图;或者点击绿色箭头查看邻近地区的地图。


METAR-TAF: